Time;durP1;ratioP1;P1;durP2;ratioP2;P2;SDS_P1;SDS_P2;PMS_P1;PMS_P2;Temp;Humidity;BMP_temperature;BMP_pressure;BME280_temperature;BME280_humidity;BME280_pressure;Samples;Min_cycle;Max_cycle;Signal;HPM_P1;HPM_P2
2024/01/01 00:01:22;;;;;;;12.93;5.78;;;;;;;3.82;58.93;99616.56;4962515;28;20072;-68
2024/01/01 00:03:47;;;;;;;13.27;5.57;;;;;;;3.85;59.18;99613.88;4954235;28;20463;-67
2024/01/01 00:06:13;;;;;;;13.05;5.30;;;;;;;3.97;58.82;99619.50;4959242;28;20035;-67
2024/01/01 00:08:38;;;;;;;10.07;3.53;;;;;;;4.08;58.53;99611.41;4956499;28;20117;-72
2024/01/01 00:11:04;;;;;;;13.80;3.85;;;;;;;4.32;57.71;99614.91;4964134;28;20478;-73
2024/01/01 00:13:29;;;;;;;12.60;3.83;;;;;;;3.83;59.14;99623.41;4959730;28;20077;-71
2024/01/01 00:15:55;;;;;;;13.45;4.45;;;;;;;3.58;59.60;99613.84;4955206;28;20057;-71
2024/01/01 00:18:20;;;;;;;11.32;4.22;;;;;;;4.02;59.15;99611.59;4958808;28;20041;-69
2024/01/01 00:20:48;;;;;;;15.38;4.72;;;;;;;3.58;60.36;99612.16;4957367;28;20049;-69
2024/01/01 00:23:14;;;;;;;14.20;5.20;;;;;;;4.22;58.55;99608.34;4957056;28;20461;-69
2024/01/01 00:25:39;;;;;;;13.98;5.82;;;;;;;4.15;59.26;99609.47;4957452;28;20129;-67
2024/01/01 00:28:06;;;;;;;13.18;6.18;;;;;;;3.85;59.87;99606.13;4961988;28;20126;-70
2024/01/01 00:30:32;;;;;;;12.48;6.03;;;;;;;3.70;60.12;99610.06;4968160;28;20146;-67
2024/01/01 00:32:58;;;;;;;19.60;7.20;;;;;;;4.07;59.30;99608.88;4961044;28;20145;-68
2024/01/01 00:35:23;;;;;;;20.70;7.32;;;;;;;4.24;58.96;99616.06;4977674;28;20499;-70
2024/01/01 00:37:50;;;;;;;14.43;6.53;;;;;;;4.28;58.47;99615.91;4960873;28;20034;-70
2024/01/01 00:40:15;;;;;;;13.43;5.70;;;;;;;4.42;58.49;99602.50;4964350;28;20038;-70
2024/01/01 00:42:43;;;;;;;12.98;5.85;;;;;;;4.22;58.89;99619.53;4968211;28;20038;-67
2024/01/01 00:45:09;;;;;;;10.30;4.88;;;;;;;3.79;60.05;99609.78;4977134;28;20093;-69
2024/01/01 00:47:35;;;;;;;12.23;5.18;;;;;;;4.12;59.21;99609.53;4966171;28;20529;-72
2024/01/01 00:50:01;;;;;;;11.27;5.78;;;;;;;3.78;59.73;99608.06;4961895;28;20089;-69
2024/01/01 00:52:26;;;;;;;14.25;5.43;;;;;;;4.47;57.73;99599.75;4980836;28;20035;-68
2024/01/01 00:54:55;;;;;;;11.15;4.47;;;;;;;4.21;58.39;99601.50;4963270;28;20047;-66
2024/01/01 00:57:20;;;;;;;8.13;3.67;;;;;;;3.78;59.19;99598.59;4964810;28;20653;-68
2024/01/01 00:59:46;;;;;;;10.32;4.18;;;;;;;3.94;59.21;99604.09;4960176;28;20125;-67
2024/01/01 01:02:12;;;;;;;13.32;3.35;;;;;;;4.14;58.81;99610.34;4965534;28;20485;-69
2024/01/01 01:04:38;;;;;;;7.45;3.42;;;;;;;4.23;59.18;99604.88;4963039;28;20195;-67
2024/01/01 01:07:05;;;;;;;9.23;3.17;;;;;;;4.08;59.57;99616.56;4958019;28;20145;-66
2024/01/01 01:09:30;;;;;;;8.10;2.78;;;;;;;4.02;60.08;99624.53;4961856;28;20142;-65
2024/01/01 01:11:56;;;;;;;16.65;3.00;;;;;;;4.02;60.12;99609.84;4958440;28;20450;-67
2024/01/01 01:14:21;;;;;;;12.05;3.10;;;;;;;4.07;59.91;99604.53;4993409;28;20074;-66
2024/01/01 01:16:47;;;;;;;9.02;2.40;;;;;;;4.05;60.42;99605.47;4959888;28;20121;-67
2024/01/01 01:19:12;;;;;;;8.52;3.15;;;;;;;3.97;60.86;99608.31;4973945;28;20045;-67
2024/01/01 01:21:38;;;;;;;14.23;4.03;;;;;;;4.06;59.95;99607.19;4970671;28;20046;-66
2024/01/01 01:24:04;;;;;;;12.60;3.78;;;;;;;4.24;60.37;99614.31;4958929;28;20046;-70
2024/01/01 01:26:29;;;;;;;7.95;2.63;;;;;;;4.22;59.63;99605.75;4965147;28;20378;-72
2024/01/01 01:28:56;;;;;;;12.77;4.22;;;;;;;4.09;60.32;99601.91;4962004;28;20134;-69
2024/01/01 01:31:24;;;;;;;14.77;4.57;;;;;;;3.71;61.00;99593.66;4992839;28;20107;-68
2024/01/01 01:33:51;;;;;;;9.38;3.78;;;;;;;3.82;60.12;99588.16;4962728;28;20126;-73
2024/01/01 01:36:16;;;;;;;12.18;3.88;;;;;;;4.22;59.33;99601.44;4976977;28;20423;-70
2024/01/01 01:38:42;;;;;;;8.95;4.22;;;;;;;3.98;60.16;99600.53;4976762;28;20590;-72
2024/01/01 01:41:08;;;;;;;6.00;3.15;;;;;;;3.92;59.92;99592.97;4959060;28;20050;-71
2024/01/01 01:43:33;;;;;;;7.40;3.92;;;;;;;3.95;59.83;99595.44;4970489;28;20034;-72
2024/01/01 01:45:59;;;;;;;16.25;3.42;;;;;;;3.95;60.22;99594.59;4956777;28;20050;-67
2024/01/01 01:48:25;;;;;;;10.50;3.92;;;;;;;4.23;59.27;99589.38;4963093;28;20501;-73
2024/01/01 01:50:51;;;;;;;16.83;4.35;;;;;;;4.49;58.21;99587.59;4977238;28;20042;-73
2024/01/01 01:53:27;;;;;;;11.40;4.45;;;;;;;4.14;58.84;99590.53;4961710;28;20037;-71
2024/01/01 01:55:56;;;;;;;7.70;4.80;;;;;;;4.43;58.10;99586.94;4960532;28;20063;-68
2024/01/01 01:58:22;;;;;;;16.45;5.18;;;;;;;4.08;59.12;99584.72;4959333;28;20030;-70
2024/01/01 02:00:48;;;;;;;19.88;6.93;;;;;;;4.45;57.92;99580.84;4988364;28;20096;-71
2024/01/01 02:03:14;;;;;;;15.73;6.15;;;;;;;4.31;57.74;99586.50;4959792;28;20112;-66
2024/01/01 02:05:39;;;;;;;18.02;6.75;;;;;;;4.16;58.26;99578.38;4961708;28;20043;-68
2024/01/01 02:08:07;;;;;;;13.32;6.65;;;;;;;4.20;57.76;99572.19;4970309;28;20073;-67
2024/01/01 02:10:33;;;;;;;11.35;7.43;;;;;;;4.23;58.19;99581.59;4959617;28;20128;-66
2024/01/01 02:13:02;;;;;;;15.73;7.93;;;;;;;4.39;57.44;99582.75;4960669;28;20045;-67
2024/01/01 02:15:27;;;;;;;19.60;7.60;;;;;;;4.46;57.05;99585.13;4963058;28;20058;-67
2024/01/01 02:17:53;;;;;;;18.13;8.38;;;;;;;4.49;57.32;99574.66;4959787;28;20034;-66
2024/01/01 02:20:18;;;;;;;12.55;8.32;;;;;;;4.16;57.97;99590.44;4960311;28;20100;-68
2024/01/01 02:22:44;;;;;;;15.38;8.18;;;;;;;4.07;57.90;99588.19;4967901;28;20126;-66
2024/01/01 02:25:10;;;;;;;14.35;8.88;;;;;;;3.99;58.08;99581.53;4958580;28;20448;-64
2024/01/01 02:27:36;;;;;;;19.27;8.35;;;;;;;3.94;58.09;99587.72;4960657;28;20039;-65
2024/01/01 02:30:03;;;;;;;17.90;9.48;;;;;;;4.08;57.86;99585.53;4972462;28;20050;-66
2024/01/01 02:32:29;;;;;;;20.92;8.35;;;;;;;4.04;57.64;99599.47;4969567;28;20114;-67
2024/01/01 02:34:54;;;;;;;22.27;10.10;;;;;;;4.13;56.95;99593.16;4961145;28;20552;-67
2024/01/01 02:37:20;;;;;;;21.02;8.98;;;;;;;4.22;56.88;99598.00;4956654;28;20515;-66
2024/01/01 02:39:45;;;;;;;26.08;9.23;;;;;;;3.88;57.97;99593.97;4965760;28;20175;-66
2024/01/01 02:42:11;;;;;;;19.33;10.05;;;;;;;4.07;57.01;99588.19;4946995;28;20464;-66
2024/01/01 02:44:36;;;;;;;21.35;9.73;;;;;;;4.41;56.87;99587.88;4958866;28;20511;-65
2024/01/01 02:47:02;;;;;;;18.05;9.20;;;;;;;4.19;57.37;99593.78;4957289;28;20046;-66
2024/01/01 02:49:27;;;;;;;21.10;9.88;;;;;;;4.58;56.71;99593.28;4958162;28;20039;-67
2024/01/01 02:51:53;;;;;;;17.00;8.40;;;;;;;4.59;56.02;99604.50;4959837;28;20042;-67
2024/01/01 02:54:19;;;;;;;22.25;10.27;;;;;;;4.33;56.85;99590.72;4960124;28;20101;-67
2024/01/01 02:56:45;;;;;;;23.23;9.50;;;;;;;4.38;56.30;99606.91;4961717;28;20091;-67
2024/01/01 02:59:11;;;;;;;18.73;9.90;;;;;;;4.67;55.91;99605.06;4969765;28;20048;-68
2024/01/01 03:01:37;;;;;;;22.13;9.52;;;;;;;4.32;56.95;99617.50;4961164;28;20596;-69
2024/01/01 03:04:03;;;;;;;19.90;9.05;;;;;;;4.39;56.88;99607.78;4958271;28;20039;-69
2024/01/01 03:06:28;;;;;;;22.55;9.73;;;;;;;4.34;57.03;99609.66;4962523;28;20070;-68
2024/01/01 03:08:54;;;;;;;21.98;10.15;;;;;;;4.15;58.02;99612.03;4957861;28;20049;-68
2024/01/01 03:11:19;;;;;;;21.25;10.15;;;;;;;4.07;58.01;99611.44;4951728;28;20041;-72
2024/01/01 03:13:45;;;;;;;21.77;9.32;;;;;;;4.55;56.69;99613.28;4959998;28;20185;-69
2024/01/01 03:16:10;;;;;;;25.08;9.20;;;;;;;4.08;58.20;99619.16;4970364;28;20069;-70
2024/01/01 03:18:36;;;;;;;20.30;10.25;;;;;;;4.64;56.70;99618.13;4959455;28;20034;-67
2024/01/01 03:21:02;;;;;;;19.63;8.23;;;;;;;4.43;57.71;99617.97;4958656;28;20117;-68
2024/01/01 03:23:27;;;;;;;20.17;9.55;;;;;;;4.41;57.70;99622.34;4965948;28;20473;-68
2024/01/01 03:25:52;;;;;;;27.00;10.05;;;;;;;4.07;58.59;99624.38;4958813;28;20074;-67
2024/01/01 03:28:18;;;;;;;18.50;8.98;;;;;;;3.99;59.33;99617.72;4957548;28;20129;-69
2024/01/01 03:30:43;;;;;;;21.48;9.13;;;;;;;4.27;58.32;99621.97;4959280;28;20042;-71
2024/01/01 03:33:09;;;;;;;26.00;10.45;;;;;;;4.30;58.36;99624.47;4960936;28;20039;-71
2024/01/01 03:35:34;;;;;;;25.38;9.38;;;;;;;4.16;58.33;99621.47;4959364;28;20042;-67
2024/01/01 03:38:01;;;;;;;24.75;8.82;;;;;;;4.23;57.57;99630.75;4957845;28;20077;-71
2024/01/01 03:40:27;;;;;;;20.65;8.27;;;;;;;3.96;58.24;99624.72;4958078;28;20039;-65
2024/01/01 03:42:53;;;;;;;20.10;8.95;;;;;;;3.92;57.35;99624.00;4960341;28;20101;-65
2024/01/01 03:45:19;;;;;;;18.02;8.75;;;;;;;4.09;57.24;99620.00;4954787;28;20810;-66
2024/01/01 03:47:44;;;;;;;23.15;8.30;;;;;;;3.87;57.25;99612.09;4959784;28;20126;-65
2024/01/01 03:50:10;;;;;;;15.65;9.05;;;;;;;4.30;56.68;99618.47;4954933;28;20043;-71
2024/01/01 03:52:35;;;;;;;13.63;7.22;;;;;;;4.16;56.38;99616.31;4959992;28;20579;-72
2024/01/01 03:55:01;;;;;;;22.00;7.28;;;;;;;4.20;56.38;99615.31;4959294;28;20042;-70
2024/01/01 03:57:26;;;;;;;17.70;6.72;;;;;;;4.06;56.44;99617.53;4953877;28;20041;-71
2024/01/01 03:59:52;;;;;;;20.10;6.28;;;;;;;4.21;56.34;99622.19;4959641;28;20105;-71
2024/01/01 04:02:18;;;;;;;14.05;7.20;;;;;;;4.16;55.79;99611.13;4963577;28;20030;-64
2024/01/01 04:04:44;;;;;;;13.85;7.20;;;;;;;4.34;55.70;99607.94;4963844;28;20045;-65
2024/01/01 04:07:10;;;;;;;22.15;7.25;;;;;;;4.47;55.08;99610.94;4960860;28;20034;-66
2024/01/01 04:09:36;;;;;;;14.00;7.45;;;;;;;4.14;55.83;99600.88;4962291;28;20758;-66
2024/01/01 04:12:01;;;;;;;18.80;7.72;;;;;;;3.89;56.76;99615.47;4991105;28;20058;-66
2024/01/01 04:14:27;;;;;;;15.70;6.93;;;;;;;4.32;55.16;99620.09;4975920;28;20054;-68
2024/01/01 04:16:52;;;;;;;13.88;6.72;;;;;;;4.26;55.93;99628.03;4966887;28;20035;-68
2024/01/01 04:19:18;;;;;;;13.38;7.18;;;;;;;4.13;56.66;99608.66;4959485;28;20082;-68
2024/01/01 04:21:43;;;;;;;11.27;6.25;;;;;;;4.42;56.70;99626.63;4962564;28;20066;-67
2024/01/01 04:24:09;;;;;;;12.02;6.10;;;;;;;3.88;58.34;99630.16;4976532;28;20042;-69
2024/01/01 04:26:38;;;;;;;13.90;6.10;;;;;;;3.96;58.95;99628.19;4977032;28;20969;-69
2024/01/01 04:29:03;;;;;;;14.57;6.82;;;;;;;4.06;58.66;99625.28;4964174;28;20240;-69
2024/01/01 04:31:29;;;;;;;19.52;6.47;;;;;;;3.89;59.60;99618.91;4969011;28;20022;-69
2024/01/01 04:33:54;;;;;;;17.40;7.57;;;;;;;3.59;60.70;99619.00;4962398;28;20038;-70
2024/01/01 04:36:21;;;;;;;16.23;6.55;;;;;;;3.61;60.64;99613.78;4961173;28;20042;-66
2024/01/01 04:38:47;;;;;;;15.32;5.43;;;;;;;3.74;60.12;99609.09;4969804;28;20034;-67
2024/01/01 04:41:12;;;;;;;12.85;5.28;;;;;;;3.35;61.38;99610.25;4961764;28;20050;-68
2024/01/01 04:43:41;;;;;;;14.45;4.65;;;;;;;3.58;59.87;99603.53;4961864;28;20046;-67
2024/01/01 04:46:09;;;;;;;15.15;5.45;;;;;;;3.56;60.37;99616.50;4962569;28;20063;-68
2024/01/01 04:48:35;;;;;;;8.40;3.78;;;;;;;3.70;60.11;99604.91;4963551;28;20030;-68
2024/01/01 04:51:00;;;;;;;13.85;5.07;;;;;;;3.22;61.41;99613.22;4962476;28;20126;-68
2024/01/01 04:53:26;;;;;;;10.38;4.22;;;;;;;3.56;60.91;99619.09;4961136;28;20030;-69
2024/01/01 04:55:52;;;;;;;12.60;5.05;;;;;;;3.58;60.41;99617.31;4965315;28;20052;-68
2024/01/01 04:58:17;;;;;;;17.45;4.82;;;;;;;3.19;61.74;99615.00;4964211;28;20085;-69
2024/01/01 05:00:43;;;;;;;11.82;5.00;;;;;;;3.42;60.85;99608.31;4962760;28;20600;-70
2024/01/01 05:03:08;;;;;;;12.40;4.40;;;;;;;3.32;60.58;99617.25;4964596;28;20608;-69
2024/01/01 05:05:34;;;;;;;11.93;4.30;;;;;;;3.50;60.09;99611.53;4959983;28;20161;-69
2024/01/01 05:07:59;;;;;;;9.70;5.50;;;;;;;3.80;59.33;99625.22;4962312;28;20479;-70
2024/01/01 05:10:25;;;;;;;14.43;4.75;;;;;;;3.84;59.46;99618.22;4958740;28;20101;-69
2024/01/01 05:12:51;;;;;;;10.65;4.75;;;;;;;3.57;60.05;99625.94;4966956;28;20168;-69
2024/01/01 05:15:16;;;;;;;13.07;4.53;;;;;;;3.77;59.56;99622.72;4958071;28;20860;-69
2024/01/01 05:17:42;;;;;;;7.78;3.83;;;;;;;3.92;59.21;99617.97;4962161;28;20034;-71
2024/01/01 05:20:08;;;;;;;9.52;2.95;;;;;;;3.88;59.16;99614.66;4962393;28;20039;-70
2024/01/01 05:22:33;;;;;;;8.80;3.58;;;;;;;3.69;59.75;99621.28;4976136;28;20043;-70
2024/01/01 05:24:59;;;;;;;7.32;3.55;;;;;;;3.45;60.54;99620.28;4961911;28;20039;-71
2024/01/01 05:27:25;;;;;;;9.80;3.58;;;;;;;3.32;60.47;99619.84;4972959;28;20062;-72
2024/01/01 05:29:51;;;;;;;9.82;2.78;;;;;;;3.37;60.86;99626.53;4962040;28;20065;-72
2024/01/01 05:32:16;;;;;;;6.53;2.53;;;;;;;3.31;60.64;99628.47;4959205;28;20039;-74
2024/01/01 05:34:42;;;;;;;7.63;1.92;;;;;;;3.63;59.44;99629.22;4963332;28;20145;-73
2024/01/01 05:37:08;;;;;;;9.75;1.70;;;;;;;3.65;59.73;99625.72;4958733;28;20475;-69
2024/01/01 05:39:34;;;;;;;8.25;1.83;;;;;;;3.54;59.76;99620.88;4959225;28;20042;-69
2024/01/01 05:42:00;;;;;;;3.83;1.92;;;;;;;3.32;60.35;99625.00;4961470;28;20038;-69
2024/01/01 05:44:25;;;;;;;8.07;1.58;;;;;;;3.72;59.13;99631.53;4969433;28;20409;-69
2024/01/01 05:46:51;;;;;;;4.97;1.55;;;;;;;3.89;58.80;99631.00;4968951;28;20045;-69
2024/01/01 05:49:19;;;;;;;8.27;1.88;;;;;;;3.33;60.54;99634.44;4958657;28;20050;-69
2024/01/01 05:51:45;;;;;;;4.25;0.77;;;;;;;3.43;60.32;99629.84;4962876;28;20070;-69
2024/01/01 05:54:10;;;;;;;5.25;0.80;;;;;;;3.53;59.71;99629.50;4960213;28;20101;-69
2024/01/01 05:56:37;;;;;;;6.55;0.63;;;;;;;3.78;59.28;99629.63;4960007;28;20069;-69
2024/01/01 05:59:03;;;;;;;6.28;1.10;;;;;;;3.65;59.29;99635.19;4958227;28;20038;-69
2024/01/01 06:01:28;;;;;;;2.38;0.40;;;;;;;3.59;59.69;99629.31;4959174;28;20039;-69
2024/01/01 06:03:53;;;;;;;6.22;0.68;;;;;;;3.20;60.92;99636.50;4960796;28;20042;-71
2024/01/01 06:06:19;;;;;;;2.33;0.82;;;;;;;3.44;60.15;99632.38;4959135;28;20034;-69
2024/01/01 06:08:44;;;;;;;1.52;0.50;;;;;;;3.48;60.35;99646.91;4958354;28;20110;-69
2024/01/01 06:11:10;;;;;;;4.55;0.60;;;;;;;3.47;60.21;99640.06;4959638;28;20047;-73
2024/01/01 06:13:35;;;;;;;7.38;0.60;;;;;;;3.61;60.70;99647.38;4960280;28;20069;-70
2024/01/01 06:16:03;;;;;;;2.97;0.65;;;;;;;2.94;62.10;99637.25;4959329;28;20050;-67
2024/01/01 06:18:28;;;;;;;2.65;0.57;;;;;;;3.27;61.88;99652.66;4960866;28;20026;-69
2024/01/01 06:20:54;;;;;;;1.40;0.70;;;;;;;3.19;61.93;99645.97;4965862;28;20603;-70
2024/01/01 06:23:19;;;;;;;5.25;0.60;;;;;;;3.38;61.56;99655.78;4975369;28;20038;-70
2024/01/01 06:25:45;;;;;;;2.53;0.70;;;;;;;2.88;62.44;99652.91;4958970;28;20050;-70
2024/01/01 06:28:10;;;;;;;5.18;0.63;;;;;;;3.17;62.23;99652.91;4959564;28;20037;-71
2024/01/01 06:30:36;;;;;;;4.50;0.65;;;;;;;3.34;61.73;99659.38;4959193;28;20528;-70
2024/01/01 06:33:02;;;;;;;5.00;0.50;;;;;;;3.02;62.51;99658.53;4961508;28;20078;-70
2024/01/01 06:35:30;;;;;;;1.67;0.60;;;;;;;3.36;61.35;99658.44;4958969;28;20050;-70
2024/01/01 06:37:57;;;;;;;4.72;0.45;;;;;;;2.81;63.68;99656.56;4960636;28;20108;-65
2024/01/01 06:40:23;;;;;;;4.93;0.65;;;;;;;3.05;62.79;99655.88;4957451;28;20110;-74
2024/01/01 06:42:48;;;;;;;2.17;0.60;;;;;;;2.76;63.47;99652.34;4961936;28;20110;-68
2024/01/01 06:45:14;;;;;;;4.65;0.30;;;;;;;2.45;64.17;99664.38;4959228;28;20594;-69
2024/01/01 06:47:40;;;;;;;2.63;0.20;;;;;;;3.13;62.82;99660.81;4957663;28;20674;-70
2024/01/01 06:50:06;;;;;;;2.25;0.63;;;;;;;3.05;62.55;99673.94;4960991;28;20039;-68
2024/01/01 06:52:34;;;;;;;2.92;0.47;;;;;;;3.34;61.95;99664.56;4957656;28;20050;-69
2024/01/01 06:55:00;;;;;;;4.40;0.52;;;;;;;3.06;62.57;99667.88;4962326;28;20039;-67
2024/01/01 06:57:25;;;;;;;3.17;0.52;;;;;;;2.85;63.72;99679.66;4955484;28;20037;-68
2024/01/01 06:59:51;;;;;;;3.17;0.40;;;;;;;2.68;64.10;99685.25;4958428;28;20042;-68
2024/01/01 07:02:17;;;;;;;7.70;0.80;;;;;;;3.12;63.09;99690.94;4959400;28;20050;-69
2024/01/01 07:04:42;;;;;;;6.75;1.13;;;;;;;2.96;62.93;99687.09;4958923;28;20073;-71
2024/01/01 07:07:08;;;;;;;3.80;0.93;;;;;;;2.88;64.13;99691.63;4958528;28;20042;-71
2024/01/01 07:09:33;;;;;;;5.90;0.47;;;;;;;2.90;63.77;99700.16;4961996;28;20809;-69
2024/01/01 07:12:17;;;;;;;4.05;0.30;;;;;;;3.21;62.99;99697.59;4959872;28;20041;-70
2024/01/01 07:14:46;;;;;;;3.45;1.08;;;;;;;3.12;63.45;99695.28;4956442;28;20046;-67
2024/01/01 07:17:11;;;;;;;4.05;0.50;;;;;;;2.86;64.22;99688.22;4959883;28;20046;-69
2024/01/01 07:19:37;;;;;;;2.78;0.30;;;;;;;2.91;64.42;99696.69;4956260;28;20411;-71
2024/01/01 07:22:02;;;;;;;1.67;0.30;;;;;;;3.19;63.68;99697.63;4970481;28;20560;-72
2024/01/01 07:24:29;;;;;;;2.30;0.30;;;;;;;3.05;64.22;99704.91;4957314;28;20465;-74
2024/01/01 07:26:54;;;;;;;2.80;0.38;;;;;;;3.06;64.07;99700.59;4988733;28;20044;-68
2024/01/01 07:29:20;;;;;;;7.78;0.52;;;;;;;3.33;62.86;99709.34;4957212;28;20042;-71
2024/01/01 07:31:45;;;;;;;2.05;0.30;;;;;;;3.08;63.70;99699.66;4986585;28;20031;-72
2024/01/01 07:34:12;;;;;;;8.10;0.45;;;;;;;3.10;63.90;99708.22;4957720;28;20077;-71
2024/01/01 07:36:38;;;;;;;3.53;0.50;;;;;;;3.01;64.73;99705.06;4958361;28;20105;-68
2024/01/01 07:39:04;;;;;;;4.13;0.98;;;;;;;3.18;64.08;99706.28;4958649;28;20062;-73
2024/01/01 07:41:29;;;;;;;2.55;0.68;;;;;;;2.92;64.82;99713.88;4956268;28;20053;-73
2024/01/01 07:43:54;;;;;;;7.57;0.73;;;;;;;2.81;65.19;99714.16;4958919;28;20038;-73
2024/01/01 07:46:20;;;;;;;4.63;0.40;;;;;;;2.75;65.81;99712.56;4958673;28;20226;-66
2024/01/01 07:48:46;;;;;;;7.43;1.02;;;;;;;2.73;65.74;99711.81;4965442;28;20541;-69
2024/01/01 07:51:11;;;;;;;6.88;0.60;;;;;;;3.17;64.64;99709.72;4958724;28;20066;-69
2024/01/01 07:53:37;;;;;;;3.15;0.63;;;;;;;2.53;65.72;99706.28;4961181;28;20031;-63
2024/01/01 07:56:04;;;;;;;5.65;1.00;;;;;;;2.75;65.49;99704.84;4981537;28;20056;-68
2024/01/01 07:58:30;;;;;;;9.13;0.90;;;;;;;2.84;66.12;99718.38;4957500;28;20046;-66
2024/01/01 08:00:56;;;;;;;2.03;0.50;;;;;;;2.69;65.61;99709.31;4959344;28;20034;-66
2024/01/01 08:03:22;;;;;;;6.15;0.57;;;;;;;2.84;65.25;99710.66;4959092;28;20662;-64
2024/01/01 08:05:47;;;;;;;2.85;0.30;;;;;;;2.74;65.60;99700.56;4969132;28;20038;-67
2024/01/01 08:08:13;;;;;;;10.45;0.55;;;;;;;3.11;65.08;99709.06;4961392;28;20030;-68
2024/01/01 08:10:38;;;;;;;12.73;1.30;;;;;;;2.91;65.85;99712.19;4959979;28;20066;-70
2024/01/01 08:13:04;;;;;;;1.77;0.65;;;;;;;3.15;65.17;99715.84;4961879;28;20046;-72
2024/01/01 08:15:30;;;;;;;4.15;0.82;;;;;;;3.22;64.57;99719.09;4960283;28;20116;-71
2024/01/01 08:17:55;;;;;;;3.90;1.00;;;;;;;2.87;66.03;99731.22;4960182;28;20561;-68
2024/01/01 08:20:20;;;;;;;6.43;1.05;;;;;;;3.17;65.04;99721.81;4959026;28;20041;-67
2024/01/01 08:22:47;;;;;;;4.22;0.40;;;;;;;2.92;65.41;99716.47;4957389;28;20030;-69
2024/01/01 08:25:13;;;;;;;1.83;0.30;;;;;;;2.42;67.12;99713.44;4957024;28;20193;-67
2024/01/01 08:27:38;;;;;;;4.07;1.10;;;;;;;2.80;66.51;99734.84;4957521;28;20141;-66
2024/01/01 08:30:06;;;;;;;4.03;0.80;;;;;;;2.39;67.29;99724.69;4959871;28;20950;-67
2024/01/01 08:32:33;;;;;;;6.95;1.02;;;;;;;2.90;66.76;99736.31;4973921;28;20041;-67
2024/01/01 08:34:58;;;;;;;8.90;0.90;;;;;;;3.04;65.90;99728.19;4956540;28;20080;-69
2024/01/01 08:37:24;;;;;;;4.38;0.50;;;;;;;2.75;66.76;99734.97;4956829;28;20062;-65
2024/01/01 08:39:49;;;;;;;7.80;0.47;;;;;;;2.97;66.29;99733.50;4948189;28;20046;-67
2024/01/01 08:42:15;;;;;;;5.80;0.60;;;;;;;3.10;65.96;99730.59;4956056;28;20043;-67
2024/01/01 08:44:40;;;;;;;2.22;0.40;;;;;;;3.05;65.99;99717.00;4955935;28;20043;-65
2024/01/01 08:47:06;;;;;;;3.63;0.77;;;;;;;2.64;66.99;99739.53;4957222;28;20061;-66
2024/01/01 08:49:31;;;;;;;7.20;1.38;;;;;;;3.09;66.07;99736.66;4954809;28;20426;-65
2024/01/01 08:51:57;;;;;;;10.40;0.90;;;;;;;2.91;66.22;99743.16;4960742;28;20058;-71
2024/01/01 08:54:23;;;;;;;2.78;0.45;;;;;;;3.37;65.21;99744.53;4958943;28;20045;-67
2024/01/01 08:56:49;;;;;;;8.68;1.67;;;;;;;3.07;66.24;99759.94;4978493;28;20046;-67
2024/01/01 08:59:16;;;;;;;7.72;0.70;;;;;;;2.73;66.80;99755.66;4958436;28;20519;-65
2024/01/01 09:01:47;;;;;;;7.05;1.75;;;;;;;3.34;65.34;99747.19;4960875;28;20042;-64
2024/01/01 09:04:13;;;;;;;3.70;1.17;;;;;;;3.15;65.95;99747.66;4964831;28;20073;-64
2024/01/01 09:06:40;;;;;;;3.20;0.40;;;;;;;2.65;66.71;99762.75;4959453;28;20035;-64
2024/01/01 09:09:05;;;;;;;2.95;0.65;;;;;;;2.73;66.83;99754.78;4958761;28;20997;-66
2024/01/01 09:11:31;;;;;;;2.38;0.68;;;;;;;2.57;66.66;99769.81;4974275;28;20120;-65
2024/01/01 09:13:56;;;;;;;3.90;0.45;;;;;;;2.48;67.32;99770.03;4957785;28;20513;-65
2024/01/01 09:16:22;;;;;;;6.18;0.93;;;;;;;2.76;66.31;99780.53;4958331;28;20038;-66
2024/01/01 09:18:48;;;;;;;4.00;0.70;;;;;;;2.68;66.12;99798.78;4957595;28;20531;-65
2024/01/01 09:21:17;;;;;;;6.78;1.00;;;;;;;2.88;65.28;99794.84;4955096;28;20030;-64
2024/01/01 09:23:42;;;;;;;3.30;0.50;;;;;;;2.87;65.06;99796.59;4956712;28;20042;-65
2024/01/01 09:26:08;;;;;;;2.58;0.20;;;;;;;2.35;66.04;99787.53;4959542;28;20242;-64
2024/01/01 09:28:35;;;;;;;2.97;0.20;;;;;;;2.37;66.05;99797.81;4958770;28;20447;-64
2024/01/01 09:31:00;;;;;;;2.30;0.05;;;;;;;1.94;66.45;99791.88;4966211;28;20092;-65
2024/01/01 09:33:26;;;;;;;3.63;0.10;;;;;;;2.16;64.76;99796.59;4959296;28;20034;-65
2024/01/01 09:35:54;;;;;;;4.50;0.28;;;;;;;2.12;64.55;99799.22;4958101;28;20050;-64
2024/01/01 09:38:19;;;;;;;1.65;0.00;;;;;;;1.72;65.52;99800.06;4958107;28;20064;-65
2024/01/01 09:40:45;;;;;;;1.75;0.13;;;;;;;2.31;63.58;99793.63;4958082;28;20085;-65
2024/01/01 09:43:17;;;;;;;0.98;0.00;;;;;;;2.13;64.01;99810.38;4958189;28;20508;-65
2024/01/01 09:45:43;;;;;;;1.10;0.40;;;;;;;2.29;63.71;99811.75;4958287;28;20042;-65
2024/01/01 09:48:09;;;;;;;0.03;0.00;;;;;;;2.65;62.87;99814.34;4957699;28;20031;-65
2024/01/01 09:50:35;;;;;;;0.40;0.10;;;;;;;2.08;64.31;99817.34;4955424;28;21587;-64
2024/01/01 09:53:00;;;;;;;0.28;0.00;;;;;;;2.07;64.81;99820.84;4958802;28;20035;-65
2024/01/01 09:55:27;;;;;;;0.20;0.10;;;;;;;2.48;64.08;99831.94;4958911;28;20043;-63
2024/01/01 09:57:53;;;;;;;2.38;0.20;;;;;;;2.06;65.52;99834.59;4954759;28;20073;-65
2024/01/01 10:00:23;;;;;;;1.25;0.10;;;;;;;2.39;65.71;99842.47;4947613;28;20039;-64
2024/01/01 10:02:49;;;;;;;3.78;0.22;;;;;;;2.72;65.10;99846.00;4957806;28;20057;-65
2024/01/01 10:05:16;;;;;;;1.00;0.47;;;;;;;2.35;64.71;99842.56;4957806;28;20805;-63
2024/01/01 10:07:47;;;;;;;0.63;0.10;;;;;;;2.81;64.79;99843.19;4966270;28;20038;-65
2024/01/01 10:10:26;;;;;;;0.85;0.22;;;;;;;2.63;65.00;99852.22;4957168;28;20166;-65
2024/01/01 10:12:52;;;;;;;1.45;0.47;;;;;;;2.53;65.95;99845.56;4958776;28;20310;-65
2024/01/01 10:15:18;;;;;;;2.42;0.32;;;;;;;2.75;65.53;99846.75;4954041;28;20043;-64
2024/01/01 10:17:43;;;;;;;2.70;0.20;;;;;;;2.39;66.43;99843.31;4960165;28;20061;-65
2024/01/01 10:20:09;;;;;;;3.67;0.20;;;;;;;2.90;65.43;99855.03;4958514;28;20115;-64
2024/01/01 10:22:34;;;;;;;1.30;0.25;;;;;;;2.83;65.32;99858.66;4957165;28;20129;-64
2024/01/01 10:25:14;;;;;;;1.10;0.20;;;;;;;2.86;65.54;99861.16;4957013;28;20043;-64
2024/01/01 10:27:41;;;;;;;2.85;0.40;;;;;;;3.05;64.71;99864.16;4957070;28;20045;-65
2024/01/01 10:30:07;;;;;;;1.35;0.15;;;;;;;2.65;65.50;99867.69;4943030;28;20071;-66
2024/01/01 10:32:33;;;;;;;3.65;0.40;;;;;;;2.21;66.83;99865.19;4959307;28;20042;-65
2024/01/01 10:35:01;;;;;;;1.75;0.20;;;;;;;2.83;65.23;99868.97;4957302;28;20046;-66
2024/01/01 10:37:28;;;;;;;0.47;0.10;;;;;;;2.84;64.72;99875.81;4958154;28;20133;-65
2024/01/01 10:39:54;;;;;;;5.18;0.47;;;;;;;2.50;66.27;99874.03;4957539;28;20057;-65
2024/01/01 10:42:20;;;;;;;1.98;0.13;;;;;;;2.61;65.32;99879.78;4956925;28;20034;-65
2024/01/01 10:44:46;;;;;;;0.88;0.10;;;;;;;2.51;65.51;99878.28;4957755;28;20494;-66
2024/01/01 10:47:14;;;;;;;2.90;0.22;;;;;;;2.52;65.79;99885.16;4958815;28;20549;-66
2024/01/01 10:49:52;;;;;;;2.67;0.20;;;;;;;2.16;66.44;99879.91;4955160;28;20057;-66
2024/01/01 10:52:27;;;;;;;0.63;0.10;;;;;;;2.48;65.02;99881.78;4958168;28;20034;-66
2024/01/01 10:55:27;;;;;;;0.30;0.10;;;;;;;2.75;64.34;99877.72;4956639;28;20050;-65
2024/01/01 10:58:11;;;;;;;0.47;0.20;;;;;;;2.53;64.41;99884.25;4956100;28;21012;-65
2024/01/01 11:00:41;;;;;;;2.00;0.03;;;;;;;2.37;64.70;99881.19;4954063;28;20126;-65
2024/01/01 11:03:12;;;;;;;0.30;0.00;;;;;;;2.66;64.05;99885.69;4959920;28;20137;-64
2024/01/01 11:05:38;;;;;;;0.35;0.15;;;;;;;2.72;63.65;99890.72;4971413;28;20102;-66
2024/01/01 11:08:03;;;;;;;2.25;0.35;;;;;;;3.01;62.67;99896.06;4958004;28;20201;-64
2024/01/01 11:11:18;;;;;;;0.68;0.10;;;;;;;2.82;62.69;99908.56;4955389;28;20039;-64
2024/01/01 11:13:51;;;;;;;3.33;0.22;;;;;;;2.62;64.30;99907.28;4980110;28;20130;-65
2024/01/01 11:16:16;;;;;;;3.40;0.40;;;;;;;2.21;65.62;99906.44;4951708;28;20106;-66
2024/01/01 11:18:44;;;;;;;0.98;0.17;;;;;;;2.49;64.68;99908.44;4965698;28;20494;-65
2024/01/01 11:21:24;;;;;;;0.52;0.00;;;;;;;2.12;65.74;99888.59;4974319;28;20541;-65
2024/01/01 11:23:50;;;;;;;0.20;0.00;;;;;;;2.56;65.17;99899.69;4952508;28;20069;-64
2024/01/01 11:26:35;;;;;;;4.00;0.10;;;;;;;2.51;65.23;99909.25;4953196;28;20125;-65
2024/01/01 11:29:24;;;;;;;0.75;0.13;;;;;;;2.60;65.25;99906.47;4954770;28;20034;-64
2024/01/01 11:31:59;;;;;;;0.85;0.10;;;;;;;2.80;64.86;99902.56;4950877;28;20055;-64
2024/01/01 11:34:25;;;;;;;1.42;0.10;;;;;;;2.44;65.47;99907.69;4951369;28;20472;-65
2024/01/01 11:36:52;;;;;;;0.70;0.30;;;;;;;2.92;64.73;99910.03;4950504;28;20073;-64